createdAt,value
2022-09-29T00:00:52.140Z,2.08
2022-09-29T00:03:23.511Z,1.98
2022-09-29T00:05:58.629Z,2.03
2022-09-29T00:08:31.705Z,2.15
2022-09-29T00:11:02.074Z,2.03
2022-09-29T00:13:32.450Z,1.75
2022-09-29T00:16:05.167Z,2.20
2022-09-29T00:18:37.209Z,1.75
2022-09-29T00:21:11.934Z,2.13
2022-09-29T00:23:42.410Z,1.80
2022-09-29T00:26:15.079Z,1.90
2022-09-29T00:28:49.909Z,1.90
2022-09-29T00:31:20.313Z,2.58
2022-09-29T00:33:51.041Z,2.00
2022-09-29T00:36:25.308Z,1.90
2022-09-29T00:38:56.747Z,2.40
2022-09-29T00:41:30.206Z,1.80
2022-09-29T00:44:02.763Z,2.15
2022-09-29T00:46:40.309Z,2.05
2022-09-29T00:49:18.224Z,1.90
2022-09-29T00:51:56.111Z,1.88
2022-09-29T00:54:29.798Z,1.80
2022-09-29T00:57:02.740Z,2.00
2022-09-29T00:59:38.724Z,2.10
2022-09-29T01:02:09.342Z,1.95
2022-09-29T01:04:39.815Z,2.03
2022-09-29T01:07:13.736Z,1.90
2022-09-29T01:09:46.931Z,2.05
2022-09-29T01:12:17.302Z,1.88
2022-09-29T01:14:49.842Z,1.90
2022-09-29T01:17:20.862Z,1.75
2022-09-29T01:20:04.536Z,2.03
2022-09-29T01:23:12.817Z,2.00
2022-09-29T01:26:06.729Z,2.30
2022-09-29T01:29:05.570Z,2.20
2022-09-29T01:31:45.545Z,2.47
2022-09-29T01:34:27.129Z,2.85
2022-09-29T01:37:07.023Z,2.00
2022-09-29T01:39:40.964Z,1.85
2022-09-29T01:42:19.377Z,2.00
2022-09-29T01:44:55.063Z,1.85
2022-09-29T01:47:33.743Z,1.67
2022-09-29T01:50:07.651Z,1.75
2022-09-29T01:52:43.639Z,1.92
2022-09-29T01:55:17.003Z,1.60
2022-09-29T01:57:54.110Z,2.10
2022-09-29T02:00:26.400Z,1.58
2022-09-29T02:03:03.424Z,1.58
2022-09-29T02:05:39.119Z,1.50
2022-09-29T02:08:13.704Z,1.60
2022-09-29T02:10:51.239Z,1.85
2022-09-29T02:13:23.067Z,1.75
2022-09-29T02:15:57.661Z,2.00
2022-09-29T02:18:35.555Z,1.92
2022-09-29T02:21:06.045Z,1.83
2022-09-29T02:23:36.506Z,1.90
2022-09-29T02:26:07.461Z,1.90
2022-09-29T02:28:38.380Z,2.97
2022-09-29T02:31:09.423Z,2.42
2022-09-29T02:33:42.563Z,1.90
2022-09-29T02:36:26.154Z,2.22
2022-09-29T02:39:03.812Z,1.60
2022-09-29T02:41:44.163Z,1.63
2022-09-29T02:44:34.486Z,1.60
2022-09-29T02:47:26.317Z,1.83
2022-09-29T02:50:16.506Z,2.25
2022-09-29T02:52:54.911Z,2.10
2022-09-29T02:55:34.836Z,2.30
2022-09-29T02:58:13.646Z,2.05
2022-09-29T03:00:45.191Z,1.88
2022-09-29T03:03:15.746Z,2.05
2022-09-29T03:05:49.099Z,2.50
2022-09-29T03:08:19.747Z,2.90
2022-09-29T03:10:50.178Z,2.25
2022-09-29T03:13:20.850Z,2.20
2022-09-29T03:15:51.462Z,2.00
2022-09-29T03:18:23.426Z,2.30
2022-09-29T03:20:57.486Z,2.67
2022-09-29T03:23:27.953Z,2.40
2022-09-29T03:25:58.412Z,2.47
2022-09-29T03:28:28.798Z,2.42
2022-09-29T03:30:59.261Z,2.60
2022-09-29T03:33:29.711Z,2.30
2022-09-29T03:36:04.091Z,2.35
2022-09-29T03:38:34.629Z,2.10
2022-09-29T03:41:05.029Z,2.60
2022-09-29T03:43:35.408Z,2.30
2022-09-29T03:46:06.174Z,2.70
2022-09-29T03:48:37.022Z,2.65
2022-09-29T03:51:10.410Z,2.90
2022-09-29T03:53:40.809Z,3.00
2022-09-29T03:56:11.323Z,2.60
2022-09-29T03:58:41.750Z,2.88
2022-09-29T04:01:13.210Z,2.90
2022-09-29T04:03:44.073Z,2.63
2022-09-29T04:06:17.576Z,2.42
2022-09-29T04:08:49.629Z,2.47
2022-09-29T04:11:20.275Z,2.40
2022-09-29T04:13:50.801Z,3.00
2022-09-29T04:16:21.328Z,2.80
2022-09-29T04:18:51.889Z,2.30
2022-09-29T04:21:25.068Z,2.85
2022-09-29T04:23:55.619Z,2.90
2022-09-29T04:26:26.109Z,2.20
2022-09-29T04:28:56.537Z,2.78
2022-09-29T04:31:26.928Z,4.43
2022-09-29T04:33:57.392Z,4.20
2022-09-29T04:36:30.540Z,2.90
2022-09-29T04:39:01.338Z,3.22
2022-09-29T04:41:35.026Z,3.45
2022-09-29T04:44:06.361Z,3.05
2022-09-29T04:46:36.817Z,2.22
2022-09-29T04:49:07.197Z,3.10
2022-09-29T04:51:40.528Z,3.28
2022-09-29T04:54:10.929Z,2.97
2022-09-29T04:56:41.497Z,2.90
2022-09-29T04:59:13.273Z,2.92
2022-09-29T05:01:43.742Z,2.72
2022-09-29T05:04:14.485Z,2.90
2022-09-29T05:06:47.484Z,2.83
2022-09-29T05:09:20.719Z,2.75
2022-09-29T05:11:54.648Z,2.97
2022-09-29T05:14:25.130Z,3.40
2022-09-29T05:16:58.126Z,3.58
2022-09-29T05:19:28.505Z,2.22
2022-09-29T05:22:01.904Z,2.38
2022-09-29T05:24:32.285Z,2.35
2022-09-29T05:27:03.047Z,2.50
2022-09-29T05:29:33.553Z,2.53
2022-09-29T05:32:04.278Z,2.78
2022-09-29T05:34:34.710Z,2.38
2022-09-29T05:37:07.812Z,2.40
2022-09-29T05:39:38.436Z,2.72
2022-09-29T05:42:13.416Z,2.50
2022-09-29T05:44:43.836Z,2.80
2022-09-29T05:47:14.299Z,2.70
2022-09-29T05:49:44.685Z,3.13
2022-09-29T05:52:17.687Z,3.33
2022-09-29T05:54:51.261Z,3.30
2022-09-29T05:57:22.324Z,3.30
2022-09-29T05:59:52.725Z,3.85
2022-09-29T06:02:23.177Z,4.03
2022-09-29T06:04:53.693Z,3.58
2022-09-29T06:07:26.739Z,3.20
2022-09-29T06:09:57.213Z,3.92
2022-09-29T06:12:27.742Z,3.55
2022-09-29T06:14:58.126Z,2.85
2022-09-29T06:17:28.552Z,4.47
2022-09-29T06:19:59.333Z,3.63
2022-09-29T06:22:32.452Z,3.10
2022-09-29T06:25:02.884Z,3.33
2022-09-29T06:27:33.415Z,3.22
2022-09-29T06:30:03.895Z,4.25
2022-09-29T06:32:34.694Z,3.75
2022-09-29T06:35:17.450Z,4.72
2022-09-29T06:37:50.556Z,4.43
2022-09-29T06:40:23.466Z,3.65
2022-09-29T06:42:53.943Z,3.35
2022-09-29T06:45:24.350Z,3.10
2022-09-29T06:48:00.642Z,4.70
2022-09-29T06:50:31.024Z,4.30
2022-09-29T06:53:04.919Z,2.90
2022-09-29T06:55:35.519Z,3.10
2022-09-29T06:58:05.953Z,2.00
2022-09-29T07:00:36.541Z,2.22
2022-09-29T07:03:07.100Z,2.60
2022-09-29T07:05:38.439Z,3.40
2022-09-29T07:08:11.448Z,5.90
2022-09-29T07:10:42.568Z,2.97
2022-09-29T07:13:12.908Z,3.35
2022-09-29T07:15:43.356Z,3.65
2022-09-29T07:18:13.716Z,2.90
2022-09-29T07:20:45.155Z,3.20
2022-09-29T07:23:18.263Z,4.28
2022-09-29T07:25:52.064Z,4.18
2022-09-29T07:28:22.967Z,3.50
2022-09-29T07:31:11.301Z,7.72
2022-09-29T07:33:45.359Z,6.40
2022-09-29T07:36:16.406Z,5.78
2022-09-29T07:38:52.611Z,1.90
2022-09-29T07:41:24.776Z,1.35
2022-09-29T07:43:55.183Z,2.28
2022-09-29T07:46:25.666Z,1.90
2022-09-29T07:48:56.084Z,1.90
2022-09-29T07:51:26.489Z,1.58
2022-09-29T07:54:04.074Z,1.40
2022-09-29T07:56:35.605Z,1.15
2022-09-29T07:59:06.203Z,1.10
2022-09-29T08:01:36.635Z,1.40
2022-09-29T08:04:07.099Z,1.30
2022-09-29T08:06:37.615Z,1.20
2022-09-29T08:09:10.705Z,1.65
2022-09-29T08:11:42.899Z,1.33
2022-09-29T08:14:14.399Z,1.77
2022-09-29T08:16:45.021Z,2.03
2022-09-29T08:19:15.720Z,1.80
2022-09-29T08:21:49.951Z,1.70
2022-09-29T08:24:23.089Z,1.60
2022-09-29T08:26:53.460Z,1.92
2022-09-29T08:29:24.073Z,1.60
2022-09-29T08:31:55.841Z,1.60
2022-09-29T08:34:26.396Z,1.55
2022-09-29T08:36:56.821Z,1.60
2022-09-29T08:39:29.914Z,1.90
2022-09-29T08:42:07.584Z,1.50
2022-09-29T08:44:42.462Z,1.73
2022-09-29T08:47:30.518Z,1.80
2022-09-29T08:50:09.817Z,1.90
2022-09-29T08:52:51.903Z,1.60
2022-09-29T08:55:37.292Z,1.63
2022-09-29T09:00:45.886Z,1.50
2022-09-29T09:03:31.794Z,1.40
2022-09-29T09:06:19.094Z,1.40
2022-09-29T09:09:06.592Z,1.65
2022-09-29T09:11:56.503Z,1.75
2022-09-29T09:14:46.088Z,1.60
2022-09-29T09:17:30.648Z,1.70
2022-09-29T09:20:11.194Z,1.70
2022-09-29T09:22:53.293Z,1.85
2022-09-29T09:25:37.318Z,1.88
2022-09-29T09:28:19.856Z,1.85
2022-09-29T09:30:57.118Z,1.50
2022-09-29T09:33:34.402Z,1.63
2022-09-29T09:36:09.257Z,1.30
2022-09-29T09:41:24.806Z,1.63
2022-09-29T09:46:36.758Z,1.45
2022-09-29T09:49:17.769Z,1.70
2022-09-29T09:51:56.510Z,1.60
2022-09-29T09:54:33.487Z,1.42
2022-09-29T09:57:32.361Z,1.60
2022-09-29T10:00:11.932Z,1.65
2022-09-29T10:02:48.378Z,1.30
2022-09-29T10:05:21.447Z,1.30
2022-09-29T10:07:51.867Z,3.17
2022-09-29T10:10:57.691Z,1.45
2022-09-29T10:13:31.330Z,1.88
2022-09-29T10:16:12.303Z,1.45
2022-09-29T10:18:45.612Z,1.95
2022-09-29T10:21:24.598Z,1.90
2022-09-29T10:23:56.984Z,1.70
2022-09-29T10:26:30.142Z,1.50
2022-09-29T10:29:02.408Z,1.50
2022-09-29T10:31:37.661Z,1.88
2022-09-29T10:34:20.103Z,2.10
2022-09-29T10:36:55.628Z,1.60
2022-09-29T10:39:45.648Z,1.50
2022-09-29T10:42:27.596Z,1.70
2022-09-29T10:45:04.984Z,1.80
2022-09-29T10:47:38.174Z,1.73
2022-09-29T10:50:17.470Z,2.10
2022-09-29T10:52:53.607Z,1.95
2022-09-29T10:55:26.879Z,2.42
2022-09-29T10:58:00.136Z,1.45
2022-09-29T11:00:34.994Z,2.20
2022-09-29T11:08:16.174Z,1.80
2022-09-29T11:10:50.598Z,1.52
2022-09-29T11:13:40.213Z,1.98
2022-09-29T11:16:18.669Z,3.60
2022-09-29T11:18:55.102Z,2.67
2022-09-29T11:22:00.424Z,1.55
2022-09-29T11:24:53.667Z,1.55
2022-09-29T11:27:35.707Z,1.85
2022-09-29T11:30:11.078Z,1.80
2022-09-29T11:32:56.101Z,1.60
2022-09-29T11:35:42.451Z,1.33
2022-09-29T11:38:32.852Z,1.33
2022-09-29T11:41:13.827Z,1.90
2022-09-29T11:43:50.837Z,1.40
2022-09-29T11:46:34.106Z,1.10
2022-09-29T11:49:27.774Z,1.30
2022-09-29T11:52:38.180Z,1.20
2022-09-29T11:55:29.637Z,1.30
2022-09-29T11:58:10.339Z,1.15
2022-09-29T12:00:54.610Z,1.20
2022-09-29T12:03:35.644Z,1.20
2022-09-29T12:06:33.428Z,1.10
2022-09-29T12:09:21.943Z,1.02
2022-09-29T12:15:07.859Z,0.70
2022-09-29T12:17:42.093Z,0.82
2022-09-29T12:20:22.675Z,1.00
2022-09-29T12:22:55.869Z,0.90
2022-09-29T12:25:32.173Z,1.10
2022-09-29T12:28:07.800Z,1.00
2022-09-29T12:30:46.577Z,1.05
2022-09-29T12:33:23.501Z,0.75
2022-09-29T12:36:05.320Z,0.90
2022-09-29T12:38:42.421Z,0.95
2022-09-29T12:41:21.527Z,1.40
2022-09-29T12:43:57.635Z,0.95
2022-09-29T12:46:35.998Z,1.80
2022-09-29T12:49:16.935Z,1.23
2022-09-29T12:51:50.604Z,1.05
2022-09-29T12:54:26.508Z,0.90
2022-09-29T12:57:05.119Z,0.82
2022-09-29T12:59:40.999Z,1.10
2022-09-29T13:02:37.243Z,1.45
2022-09-29T13:05:29.471Z,1.58
2022-09-29T13:08:19.039Z,1.38
2022-09-29T13:11:17.127Z,1.10
2022-09-29T13:14:17.733Z,0.80
2022-09-29T13:17:01.240Z,1.13
2022-09-29T13:19:57.876Z,1.13
2022-09-29T13:22:44.658Z,1.45
2022-09-29T13:25:28.560Z,1.20
2022-09-29T13:28:01.033Z,1.35
2022-09-29T13:30:38.321Z,1.60
2022-09-29T13:33:14.575Z,1.75
2022-09-29T13:35:47.895Z,1.50
2022-09-29T13:38:22.541Z,1.20
2022-09-29T13:41:15.666Z,1.27
2022-09-29T13:44:08.260Z,1.10
2022-09-29T13:46:44.166Z,1.60
2022-09-29T13:49:29.262Z,1.30
2022-09-29T13:52:01.164Z,1.50
2022-09-29T13:54:40.196Z,1.50
2022-09-29T13:57:31.782Z,1.75
2022-09-29T14:00:26.767Z,1.25
2022-09-29T14:03:27.061Z,1.00
2022-09-29T14:09:15.616Z,1.45
2022-09-29T14:11:51.582Z,2.20
2022-09-29T14:14:27.623Z,1.65
2022-09-29T14:17:05.829Z,2.33
2022-09-29T14:19:53.029Z,1.92
2022-09-29T14:22:53.196Z,2.38
2022-09-29T14:25:56.736Z,1.70
2022-09-29T14:28:42.275Z,1.80
2022-09-29T14:31:26.236Z,1.70
2022-09-29T14:33:57.555Z,2.05
2022-09-29T14:36:29.554Z,1.95
2022-09-29T14:39:25.268Z,4.15
2022-09-29T14:41:54.143Z,9.18
2022-09-29T14:44:48.204Z,5.25
2022-09-29T14:47:48.727Z,3.28
2022-09-29T14:50:48.020Z,1.70
2022-09-29T14:53:44.279Z,3.15
2022-09-29T14:56:30.524Z,2.13
2022-09-29T14:59:17.740Z,2.40
2022-09-29T15:02:21.047Z,2.08
2022-09-29T15:04:52.537Z,1.52
2022-09-29T15:07:25.226Z,1.38
2022-09-29T15:09:57.501Z,2.10
2022-09-29T15:12:29.950Z,2.00
2022-09-29T15:15:03.816Z,2.63
2022-09-29T15:17:49.499Z,1.60
2022-09-29T15:20:25.898Z,1.80
2022-09-29T15:23:30.910Z,1.30
2022-09-29T15:26:02.209Z,1.90
2022-09-29T15:28:37.293Z,1.58
2022-09-29T15:31:14.269Z,1.65
2022-09-29T15:33:47.901Z,2.15
2022-09-29T15:36:24.336Z,2.22
2022-09-29T15:38:56.128Z,3.10
2022-09-29T15:41:29.270Z,3.70
2022-09-29T15:44:03.469Z,2.70
2022-09-29T15:46:44.002Z,2.50
2022-09-29T15:49:17.771Z,2.60
2022-09-29T15:51:59.075Z,2.47
2022-09-29T15:54:35.058Z,2.72
2022-09-29T15:57:18.194Z,4.00
2022-09-29T15:59:54.410Z,3.60
2022-09-29T16:02:34.187Z,3.40
2022-09-29T16:05:08.431Z,2.90
2022-09-29T16:07:42.014Z,3.10
2022-09-29T16:10:19.767Z,3.03
2022-09-29T16:13:02.283Z,2.67
2022-09-29T16:15:35.674Z,2.92
2022-09-29T16:18:13.715Z,3.08
2022-09-29T16:20:47.067Z,2.90
2022-09-29T16:23:23.705Z,2.70
2022-09-29T16:26:14.528Z,3.20
2022-09-29T16:29:04.025Z,3.70
2022-09-29T16:31:35.677Z,3.47
2022-09-29T16:34:26.015Z,3.78
2022-09-29T16:36:58.520Z,3.35
2022-09-29T16:39:32.746Z,3.58
2022-09-29T16:42:07.005Z,4.07
2022-09-29T16:44:39.930Z,3.20
2022-09-29T16:47:18.461Z,3.10
2022-09-29T16:49:54.028Z,2.38
2022-09-29T16:52:28.668Z,2.20
2022-09-29T16:55:18.725Z,3.13
2022-09-29T16:57:56.777Z,4.18
2022-09-29T17:00:27.236Z,3.00
2022-09-29T17:02:59.135Z,2.88
2022-09-29T17:05:32.511Z,2.80
2022-09-29T17:11:00.323Z,3.00
2022-09-29T17:13:34.308Z,2.80
2022-09-29T17:16:06.017Z,2.55
2022-09-29T17:18:36.580Z,2.45
2022-09-29T17:21:12.562Z,2.72
2022-09-29T17:23:43.037Z,2.53
2022-09-29T17:26:35.148Z,2.72
2022-09-29T17:29:05.570Z,2.63
2022-09-29T17:31:36.070Z,2.55
2022-09-29T17:34:07.964Z,3.10
2022-09-29T17:36:41.978Z,2.42
2022-09-29T17:39:12.575Z,2.60
2022-09-29T17:41:45.951Z,2.85
2022-09-29T17:44:16.667Z,3.10
2022-09-29T17:46:47.752Z,3.10
2022-09-29T17:49:20.674Z,3.78
2022-09-29T17:51:53.974Z,3.47
2022-09-29T17:54:27.318Z,3.10
2022-09-29T17:57:02.148Z,3.28
2022-09-29T17:59:40.555Z,3.58
2022-09-29T18:02:14.953Z,2.60
2022-09-29T18:04:48.583Z,2.97
2022-09-29T18:07:21.709Z,3.55
2022-09-29T18:09:52.288Z,3.30
2022-09-29T18:12:23.345Z,2.80
2022-09-29T18:14:53.825Z,2.72
2022-09-29T18:17:24.510Z,3.10
2022-09-29T18:19:55.119Z,2.75
2022-09-29T18:22:28.186Z,3.00
2022-09-29T18:24:58.893Z,2.25
2022-09-29T18:27:30.553Z,2.50
2022-09-29T18:30:01.547Z,2.30
2022-09-29T18:32:33.098Z,2.35
2022-09-29T18:35:03.678Z,2.10
2022-09-29T18:37:36.713Z,2.20
2022-09-29T18:40:07.711Z,2.17
2022-09-29T18:42:43.107Z,2.20
2022-09-29T18:45:15.883Z,1.58
2022-09-29T18:47:47.426Z,2.40
2022-09-29T18:50:20.344Z,1.92
2022-09-29T18:52:55.796Z,2.78
2022-09-29T18:55:28.582Z,2.53
2022-09-29T18:58:00.537Z,2.50
2022-09-29T19:00:34.099Z,2.40
2022-09-29T19:03:05.362Z,2.80
2022-09-29T19:05:37.369Z,2.75
2022-09-29T19:08:10.508Z,3.13
2022-09-29T19:10:42.310Z,2.78
2022-09-29T19:13:16.793Z,3.15
2022-09-29T19:15:48.389Z,2.95
2022-09-29T19:18:23.900Z,3.13
2022-09-29T19:20:55.970Z,2.80
2022-09-29T19:23:29.957Z,2.97
2022-09-29T19:26:01.971Z,4.07
2022-09-29T19:28:33.279Z,3.47
2022-09-29T19:31:08.282Z,2.92
2022-09-29T19:33:38.865Z,2.47
2022-09-29T19:36:11.971Z,2.50
2022-09-29T19:38:45.430Z,2.83
2022-09-29T19:41:18.623Z,2.42
2022-09-29T19:43:50.101Z,3.40
2022-09-29T19:46:22.664Z,3.60
2022-09-29T19:48:53.390Z,2.80
2022-09-29T19:51:36.278Z,2.80
2022-09-29T19:54:15.096Z,2.35
2022-09-29T19:56:48.712Z,2.47
2022-09-29T19:59:22.133Z,2.30
2022-09-29T20:01:54.367Z,2.50
2022-09-29T20:04:29.867Z,2.58
2022-09-29T20:07:01.114Z,2.30
2022-09-29T20:09:34.930Z,2.65
2022-09-29T20:12:05.521Z,2.45
2022-09-29T20:14:38.096Z,2.28
2022-09-29T20:17:08.550Z,2.20
2022-09-29T20:19:38.955Z,2.35
2022-09-29T20:22:09.666Z,2.13
2022-09-29T20:24:44.198Z,2.30
2022-09-29T20:27:14.995Z,2.50
2022-09-29T20:29:45.377Z,1.98
2022-09-29T20:32:16.007Z,2.13
2022-09-29T20:34:46.418Z,2.40
2022-09-29T20:37:17.296Z,2.33
2022-09-29T20:39:50.969Z,2.17
2022-09-29T20:42:21.397Z,1.83
2022-09-29T20:44:56.299Z,2.28
2022-09-29T20:47:27.813Z,2.42
2022-09-29T20:49:58.219Z,2.10
2022-09-29T20:52:29.232Z,2.63
2022-09-29T20:55:02.667Z,2.38
2022-09-29T20:57:35.121Z,2.05
2022-09-29T21:00:05.687Z,2.25
2022-09-29T21:02:36.264Z,2.60
2022-09-29T21:05:07.326Z,1.70
2022-09-29T21:07:40.613Z,1.90
2022-09-29T21:10:14.048Z,1.98
2022-09-29T21:12:46.045Z,2.28
2022-09-29T21:15:16.595Z,1.70
2022-09-29T21:17:47.026Z,2.22
2022-09-29T21:20:18.744Z,2.10
2022-09-29T21:22:50.571Z,1.92
2022-09-29T21:25:23.730Z,1.80
2022-09-29T21:27:54.129Z,2.20
2022-09-29T21:30:24.892Z,2.00
2022-09-29T21:32:55.509Z,1.80
2022-09-29T21:35:26.625Z,2.10
2022-09-29T21:37:57.234Z,1.90
2022-09-29T21:40:30.268Z,1.95
2022-09-29T21:43:00.699Z,1.90
2022-09-29T21:45:31.112Z,2.28
2022-09-29T21:48:13.486Z,2.20
2022-09-29T21:50:43.959Z,2.20
2022-09-29T21:53:14.480Z,2.15
2022-09-29T21:55:47.752Z,2.10
2022-09-29T21:58:18.372Z,2.20
2022-09-29T22:00:51.149Z,2.25
2022-09-29T22:03:22.063Z,2.05
2022-09-29T22:05:53.215Z,1.90
2022-09-29T22:08:24.284Z,2.35
2022-09-29T22:10:58.565Z,2.33
2022-09-29T22:13:30.142Z,2.20
2022-09-29T22:16:06.367Z,2.28
2022-09-29T22:18:42.398Z,2.25
2022-09-29T22:21:15.000Z,2.38
2022-09-29T22:23:45.400Z,2.15
2022-09-29T22:26:19.960Z,2.17
2022-09-29T22:28:50.373Z,2.28
2022-09-29T22:31:20.882Z,2.20
2022-09-29T22:33:56.049Z,2.20
2022-09-29T22:36:27.564Z,2.28
2022-09-29T22:38:57.944Z,2.38
2022-09-29T22:41:31.007Z,1.98
2022-09-29T22:44:02.945Z,1.92
2022-09-29T22:46:35.274Z,2.00
2022-09-29T22:49:06.723Z,2.28
2022-09-29T22:51:37.116Z,2.85
2022-09-29T22:54:08.139Z,2.22
2022-09-29T22:56:41.107Z,2.47
2022-09-29T22:59:13.359Z,2.30
2022-09-29T23:01:43.896Z,2.05
2022-09-29T23:04:14.390Z,2.05
2022-09-29T23:06:44.828Z,2.10
2022-09-29T23:09:15.438Z,2.00
2022-09-29T23:11:48.595Z,2.55
2022-09-29T23:14:19.190Z,2.40
2022-09-29T23:16:49.551Z,2.50
2022-09-29T23:19:20.234Z,2.42
2022-09-29T23:21:50.664Z,2.60
2022-09-29T23:24:21.140Z,2.17
2022-09-29T23:26:54.423Z,2.20
2022-09-29T23:29:24.874Z,2.55
2022-09-29T23:31:55.419Z,2.40
2022-09-29T23:34:26.823Z,1.95
2022-09-29T23:36:57.376Z,2.00
2022-09-29T23:39:25.276Z,2.25
2022-09-29T23:41:58.326Z,2.55
2022-09-29T23:44:30.809Z,2.13
2022-09-29T23:47:01.469Z,2.25
2022-09-29T23:49:32.073Z,2.05
2022-09-29T23:52:04.487Z,2.60
2022-09-29T23:54:34.909Z,1.88
2022-09-29T23:57:07.953Z,2.58
2022-09-29T23:59:38.443Z,2.50
